Time;durP1;ratioP1;P1;durP2;ratioP2;P2;SDS_P1;SDS_P2;PMS_P1;PMS_P2;Temp;Humidity;BMP_temperature;BMP_pressure;BME280_temperature;BME280_humidity;BME280_pressure;Samples;Min_cycle;Max_cycle;Signal;HPM_P1;HPM_P2
2021/06/14 00:01:38;;;;;;;9.23;5.13;;;;;;;11.78;69.36;101604.56;4922956;28;118523;-75
2021/06/14 00:04:05;;;;;;;8.27;4.90;;;;;;;11.94;68.89;101595.66;4922789;28;127228;-74
2021/06/14 00:06:31;;;;;;;8.63;5.40;;;;;;;11.62;70.05;101591.91;4906900;28;100240;-82
2021/06/14 00:08:57;;;;;;;8.55;5.50;;;;;;;11.67;69.83;101598.22;4923881;28;98725;-82
2021/06/14 00:11:24;;;;;;;8.90;5.40;;;;;;;11.75;69.81;101589.69;4917946;28;127381;-75
2021/06/14 00:13:50;;;;;;;9.45;5.97;;;;;;;11.53;69.68;101599.63;4904260;28;98634;-81
2021/06/14 00:16:16;;;;;;;9.05;5.90;;;;;;;11.40;70.29;101595.38;4887625;28;107551;-76
2021/06/14 00:18:42;;;;;;;8.05;5.47;;;;;;;11.52;70.50;101593.41;4903092;28;126582;-82
2021/06/14 00:21:11;;;;;;;7.55;5.07;;;;;;;11.74;69.76;101581.81;4920190;28;100707;-76
2021/06/14 00:23:37;;;;;;;9.55;5.53;;;;;;;11.88;68.92;101576.94;4903510;28;98611;-74
2021/06/14 00:26:10;;;;;;;9.50;5.32;;;;;;;11.46;70.40;101580.06;4888201;28;97946;-81
2021/06/14 00:28:37;;;;;;;;;;;;;;;11.68;69.46;101583.66;4920853;28;98668;-81
2021/06/14 00:31:03;;;;;;;7.93;4.88;;;;;;;11.77;68.50;101584.84;4921974;28;99151;-75
2021/06/14 00:33:29;;;;;;;10.40;5.63;;;;;;;11.44;69.73;101584.91;4887021;28;127194;-76
2021/06/14 00:35:55;;;;;;;7.13;5.22;;;;;;;11.52;69.42;101574.50;4870888;28;112386;-81
2021/06/14 00:38:21;;;;;;;9.07;5.25;;;;;;;11.63;68.93;101583.59;4918796;28;126435;-82
2021/06/14 00:40:47;;;;;;;8.07;5.13;;;;;;;11.70;68.75;101583.38;4916996;28;100709;-74
2021/06/14 00:43:14;;;;;;;10.45;5.45;;;;;;;11.47;70.04;101584.38;4905846;28;98304;-82
2021/06/14 00:45:46;;;;;;;9.30;5.05;;;;;;;10.94;71.36;101582.97;4939529;28;97981;-74
2021/06/14 00:48:13;;;;;;;9.75;5.10;;;;;;;11.19;70.47;101578.00;4938949;28;98536;-82
2021/06/14 00:50:51;;;;;;;7.47;5.20;;;;;;;11.15;70.23;101582.25;4923660;28;98871;-74
2021/06/14 00:53:24;;;;;;;7.20;4.72;;;;;;;10.99;70.78;101589.25;4924106;28;102740;-75
2021/06/14 00:55:51;;;;;;;10.18;5.65;;;;;;;10.88;71.48;101583.94;4924870;28;98331;-75
2021/06/14 00:58:17;;;;;;;7.63;4.82;;;;;;;10.83;72.11;101587.34;4906752;28;98693;-76
2021/06/14 01:00:43;;;;;;;9.77;5.43;;;;;;;10.72;72.33;101578.25;4907723;28;97871;-76
2021/06/14 01:03:09;;;;;;;8.63;5.60;;;;;;;10.96;71.54;101575.44;4887509;28;98099;-76
2021/06/14 01:05:44;;;;;;;8.85;5.70;;;;;;;10.83;71.40;101584.66;4921086;28;105652;-82
2021/06/14 01:08:10;;;;;;;8.57;5.53;;;;;;;11.02;71.27;101579.88;4909517;28;98933;-76
2021/06/14 01:10:37;;;;;;;9.73;5.55;;;;;;;11.05;70.23;101580.22;4890847;28;98423;-84
2021/06/14 01:13:35;;;;;;;8.75;5.80;;;;;;;10.87;71.23;101574.22;4923555;28;98202;-76
2021/06/14 01:16:38;;;;;;;10.30;5.70;;;;;;;10.49;71.74;101567.56;4940608;28;97796;-75
2021/06/14 01:19:29;;;;;;;;;;;;;;;10.63;71.19;101574.31;4941579;28;98538;-76
2021/06/14 01:22:28;;;;;;;9.43;5.82;;;;;;;10.39;71.42;101584.38;4925992;28;98388;-82
2021/06/14 01:25:16;;;;;;;9.27;5.55;;;;;;;10.42;71.65;101580.38;4941825;28;98526;-82
2021/06/14 01:27:51;;;;;;;9.68;5.80;;;;;;;10.61;71.69;101579.16;4923234;28;100709;-82
2021/06/14 01:30:20;;;;;;;11.43;6.25;;;;;;;10.32;71.93;101580.97;4900360;28;98859;-75
2021/06/14 01:32:46;;;;;;;10.50;6.10;;;;;;;10.32;72.26;101572.91;4887520;28;107621;-83
2021/06/14 01:35:14;;;;;;;9.13;5.97;;;;;;;10.60;71.15;101573.97;4886993;28;116809;-75
2021/06/14 01:37:44;;;;;;;10.73;6.43;;;;;;;10.21;71.81;101574.53;4903350;28;97902;-76
2021/06/14 01:40:11;;;;;;;8.82;5.70;;;;;;;10.42;71.56;101575.00;4917879;28;117785;-82
2021/06/14 01:42:37;;;;;;;12.68;5.32;;;;;;;10.67;70.42;101564.69;4903479;28;98347;-76
2021/06/14 01:45:05;;;;;;;8.82;5.57;;;;;;;10.63;70.56;101568.91;4903700;28;98266;-82
2021/06/14 01:47:31;;;;;;;9.10;5.90;;;;;;;10.53;70.58;101566.03;4870770;28;98359;-82
2021/06/14 01:49:57;;;;;;;7.55;5.38;;;;;;;10.34;71.74;101572.69;4917984;28;127951;-75
2021/06/14 01:52:24;;;;;;;9.52;5.28;;;;;;;10.18;71.88;101569.63;4887692;28;115014;-76
2021/06/14 01:54:52;;;;;;;8.93;5.53;;;;;;;10.32;71.54;101570.19;4886681;28;129519;-76
2021/06/14 01:57:18;;;;;;;9.45;6.00;;;;;;;9.84;73.18;101565.94;4891469;28;98761;-75
2021/06/14 01:59:45;;;;;;;8.65;5.68;;;;;;;10.25;71.97;101566.81;4906627;28;100138;-75
2021/06/14 02:02:11;;;;;;;8.68;5.07;;;;;;;10.30;71.70;101565.06;4941246;28;106398;-80
2021/06/14 02:04:38;;;;;;;8.90;5.25;;;;;;;10.45;71.14;101561.00;4924645;28;127901;-76
2021/06/14 02:07:04;;;;;;;7.65;5.38;;;;;;;9.73;72.77;101553.28;4890687;28;98032;-76
2021/06/14 02:09:30;;;;;;;10.18;5.80;;;;;;;9.73;73.28;101554.09;4905969;28;98715;-82
2021/06/14 02:12:03;;;;;;;10.27;6.28;;;;;;;9.72;73.62;101562.44;4906659;28;98877;-82
2021/06/14 02:14:31;;;;;;;8.60;5.53;;;;;;;9.68;73.21;101556.69;4921693;28;98062;-75
2021/06/14 02:17:00;;;;;;;9.02;5.63;;;;;;;9.82;73.61;101559.94;4889944;28;101430;-75
2021/06/14 02:19:26;;;;;;;8.77;5.75;;;;;;;9.77;73.26;101563.34;4873661;28;104291;-82
2021/06/14 02:21:52;;;;;;;8.95;6.05;;;;;;;9.67;73.69;101556.91;4921219;28;110194;-75
2021/06/14 02:24:18;;;;;;;9.15;5.63;;;;;;;9.61;73.40;101564.06;4888603;28;126370;-82
2021/06/14 02:26:45;;;;;;;7.13;5.30;;;;;;;9.57;73.58;101563.72;4895492;28;118101;-82
2021/06/14 02:29:11;;;;;;;8.90;6.30;;;;;;;9.51;74.21;101561.13;4941128;28;98445;-82
2021/06/14 02:31:37;;;;;;;9.43;6.07;;;;;;;9.23;74.97;101562.63;4941411;28;98799;-74
2021/06/14 02:34:05;;;;;;;9.90;6.32;;;;;;;9.29;74.76;101564.41;4923872;28;127790;-82
2021/06/14 02:36:31;;;;;;;11.30;7.10;;;;;;;9.31;74.00;101567.69;4910711;28;98157;-75
2021/06/14 02:39:01;;;;;;;13.77;7.55;;;;;;;9.05;74.68;101563.53;4921060;28;128578;-76
2021/06/14 02:41:28;;;;;;;11.02;6.60;;;;;;;9.33;73.70;101570.13;4889789;28;97829;-82
2021/06/14 02:43:54;;;;;;;9.57;6.28;;;;;;;9.32;74.34;101563.94;4920306;28;126653;-75
2021/06/14 02:46:20;;;;;;;9.50;6.10;;;;;;;9.57;73.26;101555.63;4904591;28;117718;-82
2021/06/14 02:48:47;;;;;;;9.15;6.28;;;;;;;9.12;74.70;101562.59;4871787;28;126820;-75
2021/06/14 02:51:13;;;;;;;8.77;6.28;;;;;;;9.45;74.01;101562.06;4889209;28;98247;-75
2021/06/14 02:53:39;;;;;;;9.65;6.85;;;;;;;9.35;73.92;101551.88;4889355;28;115259;-75
2021/06/14 02:56:09;;;;;;;10.75;6.95;;;;;;;9.38;74.36;101554.09;4889155;28;97954;-82
2021/06/14 02:58:40;;;;;;;9.38;6.13;;;;;;;9.04;75.16;101547.66;4921661;28;99988;-75
2021/06/14 03:01:08;;;;;;;9.68;6.28;;;;;;;9.28;74.24;101557.38;4888749;28;99884;-82
2021/06/14 03:03:41;;;;;;;10.68;6.50;;;;;;;9.30;74.02;101555.25;4920805;28;98545;-75
2021/06/14 03:06:08;;;;;;;;;;;;;;;9.34;74.02;101551.06;4905773;28;97801;-82
2021/06/14 03:08:34;;;;;;;8.65;5.70;;;;;;;9.53;73.27;101549.06;4904273;28;113625;-75
2021/06/14 03:11:00;;;;;;;10.35;6.38;;;;;;;9.40;73.67;101545.81;4903726;28;127013;-82
2021/06/14 03:13:26;;;;;;;11.73;6.90;;;;;;;9.40;73.92;101548.50;4904366;28;111922;-75
2021/06/14 03:15:52;;;;;;;8.40;6.38;;;;;;;9.37;73.94;101548.97;4887731;28;119003;-75
2021/06/14 03:18:18;;;;;;;10.35;6.05;;;;;;;9.61;73.16;101547.09;4904002;28;127165;-82
2021/06/14 03:20:45;;;;;;;10.73;6.60;;;;;;;9.58;73.07;101549.19;4892800;28;101383;-75
2021/06/14 03:23:14;;;;;;;10.15;6.70;;;;;;;9.77;72.51;101547.19;4890333;28;127480;-75
2021/06/14 03:25:41;;;;;;;8.32;5.90;;;;;;;9.56;73.03;101545.94;4924744;28;98114;-82
2021/06/14 03:28:07;;;;;;;10.82;6.22;;;;;;;9.46;73.46;101540.28;4907087;28;101103;-81
2021/06/14 03:30:34;;;;;;;9.80;6.03;;;;;;;9.75;72.70;101540.44;4907739;28;101157;-75
2021/06/14 03:33:00;;;;;;;9.88;6.20;;;;;;;9.86;72.65;101542.25;4924123;28;98265;-82
2021/06/14 03:35:26;;;;;;;10.82;6.90;;;;;;;9.59;72.97;101536.56;4940243;28;98206;-82
2021/06/14 03:37:52;;;;;;;8.70;6.03;;;;;;;9.94;72.05;101538.38;4923004;28;120311;-75
2021/06/14 03:40:19;;;;;;;8.73;5.90;;;;;;;9.78;72.66;101538.06;4906083;28;128004;-82
2021/06/14 03:42:45;;;;;;;9.95;5.95;;;;;;;9.99;72.42;101541.22;4942860;28;98298;-81
2021/06/14 03:45:12;;;;;;;9.15;6.10;;;;;;;9.97;72.34;101540.63;4923360;28;101461;-81
2021/06/14 03:47:39;;;;;;;9.77;6.40;;;;;;;9.89;72.36;101539.09;4908084;28;112561;-75
2021/06/14 03:50:06;;;;;;;10.05;6.88;;;;;;;9.98;72.24;101543.09;4879118;28;101240;-81
2021/06/14 03:52:32;;;;;;;8.50;6.00;;;;;;;9.99;72.99;101549.28;4872073;28;99477;-82
2021/06/14 03:54:58;;;;;;;8.13;5.85;;;;;;;10.19;72.20;101528.16;4903554;28;116176;-75
2021/06/14 03:57:24;;;;;;;10.52;6.80;;;;;;;10.04;72.44;101533.22;4921761;28;127992;-75
2021/06/14 03:59:50;;;;;;;11.30;6.70;;;;;;;10.13;72.58;101544.44;4902969;28;115535;-75
2021/06/14 04:02:16;;;;;;;8.93;6.20;;;;;;;10.36;71.84;101539.00;4902961;28;126613;-82
2021/06/14 04:07:11;;;;;;;10.50;6.07;;;;;;;10.56;71.47;101535.88;4901916;28;98534;-75
2021/06/14 04:09:37;;;;;;;7.97;5.80;;;;;;;10.66;71.75;101535.28;4903582;28;127946;-82
2021/06/14 04:12:05;;;;;;;8.43;6.38;;;;;;;10.73;70.89;101534.06;4920298;28;98901;-76
2021/06/14 04:14:31;;;;;;;8.32;6.05;;;;;;;10.77;71.50;101535.22;4887855;28;98022;-75
2021/06/14 04:16:57;;;;;;;9.73;6.45;;;;;;;10.71;71.95;101529.97;4903651;28;106084;-75
2021/06/14 04:19:23;;;;;;;8.85;6.07;;;;;;;10.82;71.44;101532.59;4926052;28;101099;-81
2021/06/14 04:21:49;;;;;;;11.32;6.47;;;;;;;10.86;71.60;101538.31;4938820;28;127216;-83
2021/06/14 04:24:15;;;;;;;8.93;6.15;;;;;;;10.97;71.89;101539.31;4922051;28;117327;-75
2021/06/14 04:26:41;;;;;;;9.00;6.00;;;;;;;11.08;70.74;101530.31;4921305;28;127494;-81
2021/06/14 04:29:07;;;;;;;10.15;6.35;;;;;;;11.19;71.15;101536.72;4901988;28;127652;-81
2021/06/14 04:31:33;;;;;;;11.73;7.05;;;;;;;11.00;71.26;101536.97;4918479;28;98126;-76
2021/06/14 04:33:59;;;;;;;10.50;6.28;;;;;;;11.18;71.03;101537.78;4901666;28;117109;-75
2021/06/14 04:36:25;;;;;;;10.85;6.63;;;;;;;11.20;71.43;101546.44;4900194;28;128196;-81
2021/06/14 04:38:51;;;;;;;10.38;6.68;;;;;;;11.38;71.51;101553.47;4945900;28;128297;-76
2021/06/14 04:41:17;;;;;;;11.82;7.13;;;;;;;11.47;71.54;101550.09;4919799;28;115073;-75
2021/06/14 04:43:43;;;;;;;8.60;6.68;;;;;;;11.20;72.05;101543.72;4904318;28;98182;-75
2021/06/14 04:46:10;;;;;;;8.43;6.38;;;;;;;11.66;71.11;101542.56;4902105;28;127499;-81
2021/06/14 04:48:36;;;;;;;9.07;6.53;;;;;;;11.77;70.45;101541.63;4900555;28;99661;-75
2021/06/14 04:51:02;;;;;;;9.73;5.95;;;;;;;12.04;70.05;101547.16;4900441;28;115202;-75
2021/06/14 04:53:28;;;;;;;11.43;7.10;;;;;;;11.99;69.53;101540.88;4935913;28;97909;-75
2021/06/14 04:55:54;;;;;;;10.18;6.53;;;;;;;12.28;69.11;101539.63;4935388;28;128218;-81
2021/06/14 04:58:20;;;;;;;10.95;7.00;;;;;;;12.24;68.96;101537.66;4918970;28;99836;-82
2021/06/14 05:00:47;;;;;;;10.13;6.55;;;;;;;12.58;68.36;101546.44;4915743;28;98574;-75
2021/06/14 05:03:13;;;;;;;10.65;6.50;;;;;;;12.66;67.95;101545.97;4900359;28;98313;-76
2021/06/14 05:05:39;;;;;;;12.23;6.97;;;;;;;12.92;67.41;101540.81;4911205;28;98679;-81
2021/06/14 05:08:05;;;;;;;9.85;6.68;;;;;;;12.88;67.58;101539.69;4886845;28;106541;-83
2021/06/14 05:10:32;;;;;;;9.75;6.28;;;;;;;13.04;67.44;101527.91;4912149;28;107339;-81
2021/06/14 05:12:58;;;;;;;7.90;5.97;;;;;;;12.90;67.89;101530.25;4885935;28;98158;-81
2021/06/14 05:15:25;;;;;;;9.55;6.53;;;;;;;12.85;68.11;101534.78;4904829;28;100908;-75
2021/06/14 05:17:51;;;;;;;8.85;6.40;;;;;;;13.12;67.48;101530.16;4907011;28;97903;-75
2021/06/14 05:20:17;;;;;;;9.30;6.47;;;;;;;13.43;66.12;101530.41;4939025;28;97737;-81
2021/06/14 05:22:44;;;;;;;9.68;6.05;;;;;;;13.80;65.98;101524.16;4906773;28;99244;-82
2021/06/14 05:25:12;;;;;;;10.05;6.47;;;;;;;13.88;64.95;101531.78;4922560;28;108423;-81
2021/06/14 05:27:38;;;;;;;10.95;6.15;;;;;;;14.17;63.97;101530.25;4907354;28;99088;-82
2021/06/14 05:30:05;;;;;;;8.35;5.95;;;;;;;14.41;63.67;101532.50;4921648;28;126397;-76
2021/06/14 05:32:31;;;;;;;10.82;5.70;;;;;;;14.41;63.61;101529.78;4910420;28;97962;-76
2021/06/14 05:34:58;;;;;;;12.20;5.88;;;;;;;14.94;62.41;101525.84;4925791;28;98980;-80
2021/06/14 05:37:24;;;;;;;8.93;5.90;;;;;;;14.92;61.43;101532.63;4924728;28;108761;-76
2021/06/14 05:39:50;;;;;;;10.10;5.53;;;;;;;15.50;60.27;101527.72;4924154;28;124856;-76
2021/06/14 05:42:16;;;;;;;7.68;5.20;;;;;;;15.60;59.23;101522.25;4943337;28;117758;-75
2021/06/14 05:44:42;;;;;;;7.53;5.20;;;;;;;15.82;59.13;101532.81;4925368;28;126959;-76
2021/06/14 05:47:08;;;;;;;7.90;4.65;;;;;;;16.92;56.18;101528.19;4924084;28;127529;-76
2021/06/14 05:49:34;;;;;;;13.25;5.50;;;;;;;17.99;52.38;101523.59;4909169;28;117922;-83
2021/06/14 05:52:01;;;;;;;6.70;4.55;;;;;;;20.21;46.48;101508.41;4942968;28;98088;-84
2021/06/14 05:54:27;;;;;;;8.13;4.70;;;;;;;21.48;42.66;101520.97;4937692;28;98179;-77
2021/06/14 05:56:53;;;;;;;6.50;4.80;;;;;;;21.80;41.84;101519.81;4894733;28;128231;-77
2021/06/14 05:59:19;;;;;;;6.80;4.20;;;;;;;22.46;41.37;101519.81;4908876;28;128269;-85
2021/06/14 06:01:45;;;;;;;7.78;4.30;;;;;;;22.65;40.87;101519.50;4916027;28;118598;-78
2021/06/14 06:04:11;;;;;;;7.22;4.03;;;;;;;23.33;39.00;101533.50;4905815;28;98525;-75
2021/06/14 06:06:37;;;;;;;5.47;4.25;;;;;;;22.95;39.71;101536.97;4922488;28;104051;-82
2021/06/14 06:09:03;;;;;;;5.95;4.13;;;;;;;24.27;37.39;101524.31;4921340;28;125785;-76
2021/06/14 06:11:29;;;;;;;7.15;4.18;;;;;;;24.38;37.04;101526.38;4891664;28;97831;-82
2021/06/14 06:13:55;;;;;;;5.93;4.20;;;;;;;24.25;36.52;101525.47;4906574;28;107922;-82
2021/06/14 06:16:21;;;;;;;7.63;4.07;;;;;;;26.63;32.62;101535.94;4923875;28;128191;-81
2021/06/14 06:18:47;;;;;;;5.82;3.60;;;;;;;28.06;29.99;101534.13;4908465;28;126948;-82
2021/06/14 06:21:14;;;;;;;7.35;3.97;;;;;;;27.55;30.25;101543.19;4925193;28;116595;-82
2021/06/14 06:23:40;;;;;;;5.43;3.80;;;;;;;28.01;29.32;101529.69;4923067;28;108470;-76
2021/06/14 06:26:06;;;;;;;4.68;3.47;;;;;;;28.26;29.28;101533.03;4913459;28;126621;-76
2021/06/14 06:28:32;;;;;;;7.32;3.85;;;;;;;30.17;26.77;101529.78;4889871;28;99603;-76
2021/06/14 06:30:58;;;;;;;5.03;3.58;;;;;;;29.75;26.84;101544.63;4936462;28;98206;-76
2021/06/14 06:33:24;;;;;;;6.85;3.53;;;;;;;29.12;28.80;101534.78;4924750;28;102413;-81
2021/06/14 06:35:50;;;;;;;6.93;3.60;;;;;;;28.11;29.69;101531.09;4903654;28;128397;-76
2021/06/14 06:38:16;;;;;;;4.90;3.35;;;;;;;26.92;31.72;101540.31;4920560;28;127772;-76
2021/06/14 06:40:43;;;;;;;6.32;3.85;;;;;;;26.37;33.48;101528.84;4941604;28;98112;-80
2021/06/14 06:43:09;;;;;;;6.32;3.53;;;;;;;24.66;36.26;101536.84;4940349;28;110301;-75
2021/06/14 06:45:35;;;;;;;6.50;3.70;;;;;;;24.60;36.15;101535.44;4905861;28;128010;-76
2021/06/14 06:48:01;;;;;;;7.72;3.45;;;;;;;24.04;37.54;101535.63;4888566;28;123296;-80
2021/06/14 06:50:27;;;;;;;6.65;3.40;;;;;;;25.36;35.22;101528.75;4895506;28;98414;-76
2021/06/14 06:52:53;;;;;;;6.95;3.92;;;;;;;24.92;36.15;101520.91;4922041;28;127336;-76
2021/06/14 06:55:19;;;;;;;6.80;3.97;;;;;;;23.43;39.08;101521.34;4887429;28;127343;-80
2021/06/14 06:57:45;;;;;;;6.60;3.50;;;;;;;24.02;37.68;101512.34;4916194;28;126628;-75
2021/06/14 07:00:17;;;;;;;7.35;3.55;;;;;;;23.72;39.06;101521.41;4920340;28;97832;-80
2021/06/14 07:02:43;;;;;;;7.68;3.88;;;;;;;25.07;36.41;101502.06;4896348;28;98422;-74
2021/06/14 07:05:11;;;;;;;6.57;3.60;;;;;;;23.78;37.62;101505.50;4933028;28;98678;-80
2021/06/14 07:07:38;;;;;;;6.90;3.65;;;;;;;25.39;35.84;101492.19;4904681;28;98501;-80
2021/06/14 07:10:06;;;;;;;7.18;3.70;;;;;;;25.00;35.88;101499.91;4925242;28;97943;-74
2021/06/14 07:12:36;;;;;;;6.00;3.78;;;;;;;26.10;34.00;101491.72;4940634;28;98118;-76
2021/06/14 07:15:07;;;;;;;7.07;3.70;;;;;;;26.71;32.87;101487.97;4940147;28;98021;-80
2021/06/14 07:17:33;;;;;;;5.70;3.50;;;;;;;26.33;33.88;101491.19;4926388;28;98188;-80
2021/06/14 07:19:59;;;;;;;6.60;3.78;;;;;;;26.64;34.36;101485.00;4940348;28;97939;-80
2021/06/14 07:22:25;;;;;;;6.15;3.40;;;;;;;25.87;35.76;101487.84;4939484;28;126804;-79
2021/06/14 07:24:51;;;;;;;6.60;3.50;;;;;;;24.13;37.22;101480.50;4921738;28;127275;-74
2021/06/14 07:27:17;;;;;;;6.90;3.25;;;;;;;25.15;36.95;101474.44;4922898;28;98257;-79
2021/06/14 07:29:43;;;;;;;6.22;3.20;;;;;;;24.35;37.45;101473.88;4943707;28;97832;-79
2021/06/14 07:32:09;;;;;;;6.88;3.30;;;;;;;24.97;36.62;101471.03;4939659;28;119239;-79
2021/06/14 07:34:35;;;;;;;8.10;3.40;;;;;;;24.24;37.86;101474.25;4906565;28;127856;-79
2021/06/14 07:37:01;;;;;;;6.15;3.40;;;;;;;25.65;35.61;101472.53;4922082;28;126432;-75
2021/06/14 07:39:27;;;;;;;7.03;3.50;;;;;;;26.01;34.59;101474.47;4904962;28;98156;-75
2021/06/14 07:41:54;;;;;;;4.80;3.50;;;;;;;25.40;35.81;101472.53;4904492;28;99226;-80
2021/06/14 07:44:20;;;;;;;5.68;3.22;;;;;;;25.75;35.03;101465.75;4921788;28;98493;-75
2021/06/14 07:46:46;;;;;;;5.63;3.40;;;;;;;27.59;31.79;101468.53;4922691;28;97907;-80
2021/06/14 07:49:12;;;;;;;8.07;3.45;;;;;;;26.19;33.21;101484.09;4887407;28;117798;-80
2021/06/14 07:51:39;;;;;;;5.20;2.88;;;;;;;25.96;33.72;101480.22;4886675;28;129369;-80
2021/06/14 07:54:05;;;;;;;6.97;3.15;;;;;;;26.18;33.00;101476.97;4919769;28;98569;-75
2021/06/14 07:56:31;;;;;;;5.13;3.20;;;;;;;28.46;29.03;101469.31;4932791;28;126764;-80
2021/06/14 07:58:57;;;;;;;8.40;3.60;;;;;;;28.33;30.61;101472.19;4923701;28;97839;-79
2021/06/14 08:01:23;;;;;;;5.93;3.30;;;;;;;28.73;29.71;101473.81;4922038;28;128026;-80
2021/06/14 08:03:50;;;;;;;8.27;3.50;;;;;;;27.96;30.05;101471.00;4936318;28;118677;-74
2021/06/14 08:06:16;;;;;;;6.30;3.30;;;;;;;27.77;30.06;101464.22;4902957;28;97896;-80
2021/06/14 08:08:42;;;;;;;7.38;3.30;;;;;;;27.85;29.71;101465.19;4904291;28;97951;-74
2021/06/14 08:11:09;;;;;;;5.88;2.83;;;;;;;27.99;30.60;101464.72;4919106;28;100343;-80
2021/06/14 08:13:35;;;;;;;6.28;2.58;;;;;;;30.37;26.81;101455.38;4905804;28;97968;-75
2021/06/14 08:16:01;;;;;;;6.10;2.80;;;;;;;30.87;25.64;101455.97;4923415;28;98215;-75
2021/06/14 08:18:43;;;;;;;5.80;2.58;;;;;;;31.79;24.94;101453.13;4922345;28;98332;-80
2021/06/14 08:26:30;;;;;;;6.97;2.88;;;;;;;30.08;26.23;101441.91;4912078;28;97810;-81
2021/06/14 08:28:57;;;;;;;7.63;2.90;;;;;;;29.87;26.47;101436.09;4921704;28;97861;-75
2021/06/14 08:31:24;;;;;;;6.07;2.50;;;;;;;30.85;25.76;101427.72;4920437;28;98572;-80
2021/06/14 08:33:51;;;;;;;4.50;2.90;;;;;;;30.77;25.74;101438.78;4904266;28;113994;-75
2021/06/14 08:36:17;;;;;;;7.93;3.13;;;;;;;29.71;26.25;101432.66;4921700;28;98237;-79
2021/06/14 08:38:43;;;;;;;5.93;2.42;;;;;;;29.81;26.83;101427.25;4919291;28;98310;-80
2021/06/14 08:41:09;;;;;;;4.20;2.20;;;;;;;30.53;25.10;101417.03;4934039;28;98534;-76
2021/06/14 08:43:35;;;;;;;4.90;2.53;;;;;;;31.67;24.63;101408.88;4902245;28;128450;-75
2021/06/14 08:46:02;;;;;;;7.90;2.90;;;;;;;33.44;22.73;101413.28;4894978;28;127349;-75
2021/06/14 08:48:28;;;;;;;4.70;2.40;;;;;;;32.53;23.53;101421.22;4939338;28;97944;-80
2021/06/14 08:50:54;;;;;;;5.88;2.30;;;;;;;34.08;21.73;101406.78;4922297;28;98645;-79
2021/06/14 08:53:20;;;;;;;6.55;2.38;;;;;;;32.55;22.82;101416.06;4922629;28;126023;-75
2021/06/14 08:55:47;;;;;;;6.20;2.65;;;;;;;31.75;23.27;101408.53;4919079;28;127448;-79
2021/06/14 08:58:13;;;;;;;4.32;2.72;;;;;;;33.68;21.78;101396.91;4904152;28;97873;-81
2021/06/14 09:00:39;;;;;;;4.72;2.47;;;;;;;32.63;23.11;101408.50;4902767;28;99124;-80
2021/06/14 09:03:05;;;;;;;4.80;2.53;;;;;;;35.03;20.16;101406.59;4919169;28;97920;-75
2021/06/14 09:05:31;;;;;;;4.53;2.50;;;;;;;34.81;20.75;101405.13;4886326;28;99652;-79
2021/06/14 09:08:00;;;;;;;5.88;2.45;;;;;;;33.95;21.89;101402.78;4902609;28;117844;-80
2021/06/14 09:10:30;;;;;;;6.95;2.67;;;;;;;34.43;21.04;101396.59;4922922;28;98572;-79
2021/06/14 09:13:09;;;;;;;6.07;2.70;;;;;;;33.63;22.19;101383.34;4903174;28;98674;-75
2021/06/14 09:15:35;;;;;;;5.05;2.80;;;;;;;33.84;22.31;101383.28;4919173;28;98837;-79
2021/06/14 09:18:02;;;;;;;4.30;2.40;;;;;;;33.74;22.21;101384.13;4918938;28;118083;-79
2021/06/14 09:20:28;;;;;;;4.20;2.50;;;;;;;33.27;22.00;101377.81;4913400;28;116505;-79
2021/06/14 09:22:54;;;;;;;6.65;2.80;;;;;;;32.33;23.52;101375.31;4920421;28;98571;-79
2021/06/14 09:25:20;;;;;;;6.10;2.70;;;;;;;32.35;23.83;101370.97;4885605;28;126611;-79
2021/06/14 09:27:52;;;;;;;5.85;2.65;;;;;;;32.40;22.53;101375.38;4902959;28;100569;-75
2021/06/14 09:30:23;;;;;;;;;;;;;;;34.05;21.62;101365.63;4888277;28;97928;-74
2021/06/14 09:33:00;;;;;;;4.47;2.50;;;;;;;31.13;23.67;101380.66;4918273;28;99352;-79
2021/06/14 09:35:31;;;;;;;4.63;2.20;;;;;;;31.50;23.75;101369.38;4908065;28;98068;-74
2021/06/14 09:38:15;;;;;;;4.00;2.03;;;;;;;34.88;20.46;101361.09;4930063;28;97829;-79
2021/06/14 09:40:56;;;;;;;5.15;2.40;;;;;;;35.53;18.67;101374.50;4923515;28;99419;-75
2021/06/14 09:43:30;;;;;;;3.60;2.17;;;;;;;35.42;18.90;101372.59;4923815;28;98162;-75
2021/06/14 09:45:59;;;;;;;6.72;2.40;;;;;;;35.85;18.18;101368.53;4938257;28;98037;-75
2021/06/14 09:48:27;;;;;;;4.57;2.47;;;;;;;35.31;18.86;101368.31;4907158;28;98101;-75
2021/06/14 09:50:55;;;;;;;4.30;2.40;;;;;;;35.12;18.88;101361.31;4936691;28;98297;-80
2021/06/14 09:53:23;;;;;;;4.45;2.10;;;;;;;35.98;17.99;101352.75;4918142;28;97930;-74
2021/06/14 09:55:51;;;;;;;3.78;2.30;;;;;;;36.27;17.14;101352.34;4929587;28;98072;-75
2021/06/14 09:58:26;;;;;;;9.00;6.55;;;;;;;35.55;17.45;101346.88;4919492;28;97920;-80
2021/06/14 10:00:56;;;;;;;4.78;2.45;;;;;;;35.18;19.04;101328.84;4871362;28;99109;-74
2021/06/14 10:03:25;;;;;;;3.45;2.00;;;;;;;35.94;17.10;101323.16;4902211;28;98241;-75
2021/06/14 10:05:54;;;;;;;5.28;2.08;;;;;;;35.74;16.65;101323.00;4902524;28;99717;-75
2021/06/14 10:08:32;;;;;;;4.50;1.85;;;;;;;35.84;17.29;101317.28;4903095;28;98146;-75
2021/06/14 10:11:09;;;;;;;5.30;2.15;;;;;;;36.48;16.50;101315.56;4902371;28;100592;-76
2021/06/14 10:13:43;;;;;;;5.32;1.90;;;;;;;35.21;17.46;101302.00;4920354;28;97992;-80
2021/06/14 10:16:10;;;;;;;4.20;1.80;;;;;;;35.13;18.05;101316.06;4888064;28;100504;-79
2021/06/14 10:18:51;;;;;;;4.47;1.92;;;;;;;34.76;18.59;101307.63;4906238;28;97933;-75
2021/06/14 10:21:41;;;;;;;4.63;1.80;;;;;;;35.19;18.04;101299.63;4910907;28;100228;-79
2021/06/14 10:24:12;;;;;;;5.10;1.98;;;;;;;33.92;19.13;101297.41;4906750;28;98399;-79
2021/06/14 10:26:43;;;;;;;4.43;2.03;;;;;;;35.11;18.33;101300.91;4920848;28;110217;-79
2021/06/14 10:29:12;;;;;;;6.25;2.20;;;;;;;34.89;18.52;101291.88;4940424;28;98128;-79
2021/06/14 10:31:40;;;;;;;4.80;2.05;;;;;;;32.44;20.34;101289.72;4910936;28;99139;-75
2021/06/14 10:34:06;;;;;;;3.45;1.55;;;;;;;35.53;17.16;101285.66;4890820;28;97811;-75
2021/06/14 10:36:32;;;;;;;3.22;1.60;;;;;;;35.76;16.43;101284.91;4920948;28;98132;-75
2021/06/14 10:39:01;;;;;;;3.90;1.50;;;;;;;36.15;16.07;101280.78;4892742;28;99081;-76
2021/06/14 10:41:27;;;;;;;3.30;1.60;;;;;;;33.13;19.05;101269.75;4907488;28;100678;-75
2021/06/14 10:43:53;;;;;;;3.45;1.67;;;;;;;35.28;16.77;101257.09;4908187;28;99175;-76
2021/06/14 10:46:24;;;;;;;3.33;1.63;;;;;;;35.88;17.26;101266.72;4891578;28;100539;-75
2021/06/14 10:48:57;;;;;;;3.85;1.55;;;;;;;36.40;15.44;101257.94;4941054;28;99400;-75
2021/06/14 10:51:24;;;;;;;3.45;1.50;;;;;;;35.67;16.55;101264.25;4940173;28;99299;-80
2021/06/14 10:53:59;;;;;;;3.95;1.85;;;;;;;35.24;16.89;101262.75;4909070;28;98569;-80
2021/06/14 10:56:25;;;;;;;3.75;1.77;;;;;;;35.56;16.50;101253.97;4916955;28;98187;-75
2021/06/14 10:59:05;;;;;;;4.07;1.70;;;;;;;35.13;17.25;101248.06;4889184;28;97913;-76
2021/06/14 11:01:35;;;;;;;4.32;1.80;;;;;;;32.63;20.23;101236.31;4921173;28;97895;-75
2021/06/14 11:04:05;;;;;;;2.47;1.45;;;;;;;33.27;19.64;101232.59;4932257;28;98563;-81
2021/06/14 11:06:33;;;;;;;3.30;1.55;;;;;;;34.51;17.35;101235.91;4924643;28;98772;-81
2021/06/14 11:09:06;;;;;;;3.85;1.40;;;;;;;32.73;20.63;101237.50;4924747;28;98522;-75
2021/06/14 11:11:57;;;;;;;3.08;1.60;;;;;;;34.51;17.77;101226.72;4940807;28;99262;-81
2021/06/14 11:14:31;;;;;;;2.60;1.60;;;;;;;34.80;17.81;101219.59;4923853;28;100212;-76
2021/06/14 11:17:15;;;;;;;3.83;1.60;;;;;;;34.23;18.61;101224.91;4924352;28;98637;-76
2021/06/14 11:19:41;;;;;;;2.55;1.70;;;;;;;33.97;18.73;101218.69;4927359;28;98291;-76
2021/06/14 11:22:07;;;;;;;3.95;1.85;;;;;;;33.67;19.00;101222.84;4872154;28;128709;-84
2021/06/14 11:24:38;;;;;;;4.68;1.80;;;;;;;30.74;22.01;101217.00;4927035;28;125608;-82
2021/06/14 11:27:07;;;;;;;4.38;1.63;;;;;;;31.93;22.05;101205.19;4923516;28;111420;-76
2021/06/14 11:29:48;;;;;;;4.72;1.90;;;;;;;32.92;19.77;101200.78;4909809;28;98003;-82
2021/06/14 11:32:20;;;;;;;3.03;1.42;;;;;;;33.34;20.00;101193.47;4909373;28;98435;-75
2021/06/14 11:34:54;;;;;;;3.75;1.55;;;;;;;33.35;20.07;101202.63;4904994;28;100941;-83